createdAt,value
2023-03-27T00:01:29.069Z,9.74
2023-03-27T00:03:57.104Z,9.74
2023-03-27T00:06:24.470Z,9.66
2023-03-27T00:08:51.827Z,9.57
2023-03-27T00:11:21.529Z,9.47
2023-03-27T00:13:53.913Z,9.36
2023-03-27T00:16:22.257Z,9.32
2023-03-27T00:18:49.673Z,9.30
2023-03-27T00:21:19.042Z,9.27
2023-03-27T00:23:48.873Z,9.25
2023-03-27T00:26:16.351Z,9.23
2023-03-27T00:28:47.043Z,9.22
2023-03-27T00:31:18.396Z,9.23
2023-03-27T00:33:46.186Z,9.23
2023-03-27T00:36:14.770Z,9.21
2023-03-27T00:38:43.339Z,9.20
2023-03-27T00:41:12.186Z,9.15
2023-03-27T00:43:43.260Z,9.11
2023-03-27T00:46:16.769Z,9.13
2023-03-27T00:48:46.767Z,9.14
2023-03-27T00:51:14.260Z,9.20
2023-03-27T00:53:42.411Z,9.26
2023-03-27T00:56:10.163Z,9.32
2023-03-27T00:58:39.092Z,9.38
2023-03-27T01:01:07.351Z,9.41
2023-03-27T01:03:35.119Z,9.39
2023-03-27T01:06:02.750Z,9.40
2023-03-27T01:08:32.603Z,9.38
2023-03-27T01:11:18.764Z,9.36
2023-03-27T01:13:52.053Z,9.42
2023-03-27T01:16:38.713Z,9.37
2023-03-27T01:19:26.286Z,9.34
2023-03-27T01:22:18.634Z,9.26
2023-03-27T01:25:07.868Z,9.23
2023-03-27T01:27:37.453Z,9.23
2023-03-27T01:30:05.269Z,9.18
2023-03-27T01:32:40.013Z,9.16
2023-03-27T01:35:26.435Z,9.06
2023-03-27T01:38:13.200Z,8.97
2023-03-27T01:40:47.454Z,8.92
2023-03-27T01:43:33.303Z,8.97
2023-03-27T01:46:08.180Z,8.95
2023-03-27T01:48:40.193Z,8.90
2023-03-27T01:51:09.392Z,8.86
2023-03-27T01:53:41.868Z,8.81
2023-03-27T01:56:09.427Z,8.80
2023-03-27T01:58:38.061Z,8.76
2023-03-27T02:01:06.464Z,8.74
2023-03-27T02:03:35.605Z,8.72
2023-03-27T02:06:03.556Z,8.72
2023-03-27T02:08:33.882Z,8.70
2023-03-27T02:11:11.680Z,8.65
2023-03-27T02:13:40.778Z,8.64
2023-03-27T02:16:09.011Z,8.63
2023-03-27T02:18:38.094Z,8.65
2023-03-27T02:21:05.808Z,8.66
2023-03-27T02:23:33.171Z,8.64
2023-03-27T02:26:01.436Z,8.64
2023-03-27T02:28:29.760Z,8.64
2023-03-27T02:31:32.765Z,8.60
2023-03-27T02:34:05.796Z,8.62
2023-03-27T02:36:56.908Z,8.62
2023-03-27T02:39:38.805Z,8.62
2023-03-27T02:42:09.544Z,8.63
2023-03-27T02:44:46.669Z,8.66
2023-03-27T02:47:17.700Z,8.65
2023-03-27T02:50:05.189Z,8.67
2023-03-27T02:52:44.113Z,8.64
2023-03-27T02:55:15.759Z,8.60
2023-03-27T02:57:52.459Z,8.65
2023-03-27T03:00:41.352Z,8.64
2023-03-27T03:03:28.369Z,8.66
2023-03-27T03:06:07.004Z,8.80
2023-03-27T03:08:37.800Z,8.75
2023-03-27T03:11:09.783Z,8.67
2023-03-27T03:13:39.443Z,8.61
2023-03-27T03:16:09.597Z,8.56
2023-03-27T03:18:37.037Z,8.55
2023-03-27T03:21:05.510Z,8.57
2023-03-27T03:23:33.669Z,8.62
2023-03-27T03:26:06.345Z,8.60
2023-03-27T03:28:42.914Z,8.56
2023-03-27T03:31:42.331Z,8.53
2023-03-27T03:34:14.492Z,8.53
2023-03-27T03:36:42.249Z,8.54
2023-03-27T03:39:12.000Z,8.53
2023-03-27T03:41:40.546Z,8.53
2023-03-27T03:44:08.211Z,8.55
2023-03-27T03:46:35.642Z,8.58
2023-03-27T03:49:04.486Z,8.57
2023-03-27T03:51:36.922Z,8.57
2023-03-27T03:54:06.218Z,8.56
2023-03-27T03:56:33.908Z,8.47
2023-03-27T03:59:01.437Z,8.35
2023-03-27T04:01:29.687Z,8.27
2023-03-27T04:04:01.989Z,8.27
2023-03-27T04:06:37.372Z,8.32
2023-03-27T04:09:05.298Z,8.34
2023-03-27T04:12:11.108Z,8.39
2023-03-27T04:14:45.772Z,8.46
2023-03-27T04:17:33.201Z,8.52
2023-03-27T04:20:02.107Z,8.50
2023-03-27T04:22:30.770Z,8.50
2023-03-27T04:24:58.633Z,8.48
2023-03-27T04:27:30.472Z,8.53
2023-03-27T04:30:13.939Z,8.61
2023-03-27T04:33:08.088Z,8.55
2023-03-27T04:36:05.668Z,8.56
2023-03-27T04:38:42.266Z,8.51
2023-03-27T04:41:11.553Z,8.41
2023-03-27T04:43:42.291Z,8.41
2023-03-27T04:46:10.361Z,8.38
2023-03-27T04:48:39.588Z,8.43
2023-03-27T04:51:32.337Z,8.41
2023-03-27T04:54:06.988Z,8.37
2023-03-27T04:56:41.540Z,8.38
2023-03-27T04:59:09.053Z,8.40
2023-03-27T05:01:38.461Z,8.51
2023-03-27T05:04:20.100Z,8.57
2023-03-27T05:07:19.709Z,8.68
2023-03-27T05:09:48.611Z,8.78
2023-03-27T05:12:16.454Z,8.88
2023-03-27T05:14:51.501Z,8.81
2023-03-27T05:17:41.455Z,8.68
2023-03-27T05:20:14.687Z,8.60
2023-03-27T05:22:43.698Z,8.59
2023-03-27T05:25:39.075Z,8.59
2023-03-27T05:28:11.549Z,8.58
2023-03-27T05:30:41.932Z,8.63
2023-03-27T05:33:16.412Z,8.62
2023-03-27T05:35:47.794Z,8.59
2023-03-27T05:38:16.546Z,8.53
2023-03-27T05:40:56.912Z,8.51
2023-03-27T05:43:25.167Z,8.51
2023-03-27T05:45:53.259Z,8.50
2023-03-27T05:48:21.857Z,8.48
2023-03-27T05:50:50.512Z,8.48
2023-03-27T05:53:29.004Z,8.48
2023-03-27T05:56:14.812Z,8.41
2023-03-27T05:58:58.672Z,8.40
2023-03-27T06:01:27.469Z,8.44
2023-03-27T06:03:56.477Z,8.53
2023-03-27T06:06:42.624Z,8.61
2023-03-27T06:09:12.347Z,8.67
2023-03-27T06:11:42.385Z,8.72
2023-03-27T06:14:10.729Z,8.80
2023-03-27T06:16:51.600Z,8.89
2023-03-27T06:19:38.820Z,8.90
2023-03-27T06:22:07.104Z,8.94
2023-03-27T06:24:35.631Z,9.00
2023-03-27T06:27:09.765Z,9.04
2023-03-27T06:29:40.061Z,8.99
2023-03-27T06:32:08.498Z,9.02
2023-03-27T06:34:39.951Z,9.14
2023-03-27T06:37:27.478Z,9.36
2023-03-27T06:40:01.488Z,9.53
2023-03-27T06:42:29.787Z,9.59
2023-03-27T06:45:23.942Z,9.59
2023-03-27T06:48:13.824Z,9.67
2023-03-27T06:50:50.113Z,9.79
2023-03-27T06:55:49.540Z,9.87
2023-03-27T06:58:18.408Z,9.93
2023-03-27T07:00:48.332Z,10.09
2023-03-27T07:03:23.073Z,10.28
2023-03-27T07:06:09.122Z,10.40
2023-03-27T07:08:45.061Z,10.45
2023-03-27T07:11:14.701Z,10.53
2023-03-27T07:13:48.600Z,10.65
2023-03-27T07:16:22.368Z,10.77
2023-03-27T07:18:52.125Z,10.94
2023-03-27T07:21:20.808Z,11.13
2023-03-27T07:23:48.158Z,11.22
2023-03-27T07:26:21.238Z,11.24
2023-03-27T07:29:00.685Z,11.27
2023-03-27T07:31:55.003Z,11.35
2023-03-27T07:34:28.166Z,11.54
2023-03-27T07:37:22.734Z,11.61
2023-03-27T07:40:12.933Z,11.68
2023-03-27T07:42:45.104Z,11.71
2023-03-27T07:45:21.715Z,11.79
2023-03-27T07:47:50.401Z,11.86
2023-03-27T07:50:23.511Z,11.91
2023-03-27T07:52:51.322Z,12.02
2023-03-27T07:55:19.614Z,12.10
2023-03-27T07:58:02.200Z,12.20
2023-03-27T08:00:34.844Z,12.29
2023-03-27T08:03:09.537Z,12.33
2023-03-27T08:05:37.897Z,12.44
2023-03-27T08:08:10.365Z,12.52
2023-03-27T08:10:54.204Z,12.58
2023-03-27T08:13:22.886Z,12.65
2023-03-27T08:15:51.076Z,12.73
2023-03-27T08:18:25.306Z,12.78
2023-03-27T08:20:56.873Z,12.80
2023-03-27T08:23:26.945Z,12.85
2023-03-27T08:26:14.019Z,12.95
2023-03-27T08:28:53.703Z,13.09
2023-03-27T08:31:23.658Z,13.23
2023-03-27T08:33:52.096Z,13.37
2023-03-27T08:36:25.405Z,13.58
2023-03-27T08:38:55.039Z,13.79
2023-03-27T08:41:33.415Z,13.93
2023-03-27T08:44:11.518Z,14.06
2023-03-27T08:46:42.000Z,14.17
2023-03-27T08:49:16.572Z,14.23
2023-03-27T08:52:00.306Z,14.13
2023-03-27T08:54:34.424Z,14.16
2023-03-27T08:57:04.065Z,14.26
2023-03-27T08:59:32.407Z,14.37
2023-03-27T09:02:03.398Z,14.45
2023-03-27T09:04:47.289Z,14.51
2023-03-27T09:07:38.892Z,14.56
2023-03-27T09:10:26.663Z,14.48
2023-03-27T09:12:58.510Z,14.33
2023-03-27T09:15:28.222Z,14.21
2023-03-27T09:18:16.864Z,14.14
2023-03-27T09:20:46.270Z,14.11
2023-03-27T09:23:27.960Z,14.25
2023-03-27T09:26:22.036Z,14.59
2023-03-27T09:29:12.124Z,14.95
2023-03-27T09:31:50.082Z,15.17
2023-03-27T09:34:36.238Z,15.39
2023-03-27T09:37:12.896Z,15.72
2023-03-27T09:39:41.374Z,15.92
2023-03-27T09:42:20.108Z,16.10
2023-03-27T09:44:50.114Z,16.39
2023-03-27T09:47:32.343Z,16.84
2023-03-27T09:50:27.712Z,17.33
2023-03-27T09:53:13.522Z,17.87
2023-03-27T09:55:57.970Z,18.27
2023-03-27T09:58:30.749Z,18.45
2023-03-27T10:01:08.270Z,18.51
2023-03-27T10:03:38.602Z,18.87
2023-03-27T10:06:13.192Z,19.17
2023-03-27T10:08:55.032Z,19.31
2023-03-27T10:11:27.317Z,19.39
2023-03-27T10:14:09.359Z,19.59
2023-03-27T10:16:39.740Z,19.77
2023-03-27T10:19:08.979Z,19.61
2023-03-27T10:21:42.272Z,19.38
2023-03-27T10:24:17.003Z,19.12
2023-03-27T10:27:15.483Z,18.77
2023-03-27T10:29:47.343Z,18.80
2023-03-27T10:32:15.452Z,19.03
2023-03-27T10:34:53.732Z,19.52
2023-03-27T10:37:40.231Z,20.03
2023-03-27T10:40:36.358Z,20.22
2023-03-27T10:43:13.746Z,20.55
2023-03-27T10:45:50.995Z,20.95
2023-03-27T10:48:39.487Z,21.41
2023-03-27T10:51:18.098Z,21.06
2023-03-27T10:53:56.291Z,20.91
2023-03-27T10:56:42.614Z,21.39
2023-03-27T10:59:16.179Z,21.50
2023-03-27T11:01:46.248Z,21.59
2023-03-27T11:04:14.865Z,21.83
2023-03-27T11:06:49.429Z,22.47
2023-03-27T11:09:38.694Z,23.05
2023-03-27T11:12:11.271Z,23.16
2023-03-27T11:15:13.259Z,22.78
2023-03-27T11:18:02.455Z,22.58
2023-03-27T11:20:43.925Z,22.20
2023-03-27T11:23:34.910Z,21.94
2023-03-27T11:26:22.729Z,22.18
2023-03-27T11:28:52.684Z,22.58
2023-03-27T11:31:27.231Z,22.80
2023-03-27T11:33:55.336Z,23.13
2023-03-27T11:36:25.670Z,23.52
2023-03-27T11:39:04.589Z,23.73
2023-03-27T11:41:33.272Z,23.91
2023-03-27T11:44:06.293Z,24.27
2023-03-27T11:47:11.811Z,24.49
2023-03-27T11:49:48.108Z,24.77
2023-03-27T11:52:21.674Z,24.60
2023-03-27T11:55:08.280Z,24.49
2023-03-27T11:57:44.705Z,24.96
2023-03-27T12:00:34.025Z,25.35
2023-03-27T12:03:21.269Z,25.19
2023-03-27T12:06:01.800Z,24.85
2023-03-27T12:08:36.118Z,24.94
2023-03-27T12:11:04.244Z,25.24
2023-03-27T12:13:55.046Z,25.31
2023-03-27T12:16:38.101Z,25.58
2023-03-27T12:19:27.742Z,25.49
2023-03-27T12:22:43.493Z,25.25
2023-03-27T12:25:38.115Z,24.72
2023-03-27T12:28:48.028Z,24.47
2023-03-27T12:31:41.512Z,25.18
2023-03-27T12:34:27.581Z,25.73
2023-03-27T12:36:54.819Z,25.47
2023-03-27T12:39:24.244Z,25.17
2023-03-27T12:41:52.098Z,25.06
2023-03-27T12:44:29.805Z,25.21
2023-03-27T12:47:15.983Z,25.35
2023-03-27T12:49:47.933Z,25.08
2023-03-27T12:52:26.422Z,24.21
2023-03-27T12:55:27.451Z,22.84
2023-03-27T12:57:58.920Z,21.47
2023-03-27T13:00:59.943Z,20.39
2023-03-27T13:04:10.433Z,20.12
2023-03-27T13:06:41.232Z,20.32
2023-03-27T13:09:21.775Z,20.69
2023-03-27T13:12:02.239Z,21.49
2023-03-27T13:14:46.493Z,22.44
2023-03-27T13:17:35.407Z,23.21
2023-03-27T13:20:17.886Z,23.60
2023-03-27T13:23:03.129Z,23.69
2023-03-27T13:25:31.677Z,23.41
2023-03-27T13:28:11.969Z,23.02
2023-03-27T13:31:19.043Z,22.41
2023-03-27T13:34:37.518Z,21.43
2023-03-27T13:37:11.134Z,20.62
2023-03-27T13:39:47.930Z,20.06
2023-03-27T13:42:18.021Z,19.83
2023-03-27T13:44:49.967Z,19.76
2023-03-27T13:47:36.003Z,19.85
2023-03-27T13:50:22.969Z,20.17
2023-03-27T13:53:08.687Z,20.14
2023-03-27T13:56:01.929Z,19.82
2023-03-27T13:59:12.511Z,19.58
2023-03-27T14:01:51.894Z,19.32
2023-03-27T14:04:20.428Z,19.13
2023-03-27T14:06:51.645Z,19.10
2023-03-27T14:09:19.359Z,19.05
2023-03-27T14:12:27.004Z,19.33
2023-03-27T14:15:32.465Z,20.36
2023-03-27T14:18:26.726Z,21.18
2023-03-27T14:20:55.828Z,21.65
2023-03-27T14:23:28.465Z,21.79
2023-03-27T14:26:08.606Z,21.99
2023-03-27T14:28:54.656Z,22.36
2023-03-27T14:31:48.797Z,22.97
2023-03-27T14:34:50.998Z,23.69
2023-03-27T14:37:41.567Z,24.39
2023-03-27T14:40:31.390Z,24.78
2023-03-27T14:43:01.241Z,25.07
2023-03-27T14:45:31.558Z,25.21
2023-03-27T14:48:03.303Z,25.06
2023-03-27T14:50:39.194Z,24.50
2023-03-27T14:53:09.915Z,23.65
2023-03-27T14:56:04.873Z,22.30
2023-03-27T14:58:54.144Z,21.06
2023-03-27T15:01:22.674Z,20.31
2023-03-27T15:03:54.352Z,19.77
2023-03-27T15:06:25.838Z,19.29
2023-03-27T15:08:58.516Z,18.90
2023-03-27T15:11:53.101Z,18.54
2023-03-27T15:14:28.854Z,18.25
2023-03-27T15:17:00.514Z,18.05
2023-03-27T15:19:48.767Z,17.89
2023-03-27T15:22:20.585Z,17.74
2023-03-27T15:24:57.233Z,17.60
2023-03-27T15:27:28.329Z,17.43
2023-03-27T15:29:58.049Z,17.28
2023-03-27T15:32:28.963Z,17.15
2023-03-27T15:34:57.660Z,17.04
2023-03-27T15:37:25.830Z,16.92
2023-03-27T15:40:00.310Z,16.78
2023-03-27T15:42:32.006Z,16.68
2023-03-27T15:45:02.440Z,16.62
2023-03-27T15:47:32.255Z,16.54
2023-03-27T15:50:05.366Z,16.45
2023-03-27T15:52:33.306Z,16.35
2023-03-27T15:55:03.729Z,16.26
2023-03-27T15:57:31.894Z,16.17
2023-03-27T16:00:01.514Z,16.06
2023-03-27T16:02:32.961Z,15.96
2023-03-27T16:05:04.551Z,15.85
2023-03-27T16:07:32.592Z,15.77
2023-03-27T16:10:02.090Z,15.70
2023-03-27T16:12:52.890Z,15.65
2023-03-27T16:15:30.605Z,15.59
2023-03-27T16:17:59.602Z,15.54
2023-03-27T16:20:32.871Z,15.49
2023-03-27T16:23:01.671Z,15.46
2023-03-27T16:25:31.426Z,15.41
2023-03-27T16:27:59.525Z,15.35
2023-03-27T16:30:27.611Z,15.32
2023-03-27T16:32:56.465Z,15.27
2023-03-27T16:35:24.744Z,15.21
2023-03-27T16:37:52.952Z,15.16
2023-03-27T16:40:20.614Z,15.11
2023-03-27T16:42:47.968Z,15.04
2023-03-27T16:45:15.778Z,14.95
2023-03-27T16:47:43.818Z,14.83
2023-03-27T16:50:14.884Z,14.69
2023-03-27T16:52:43.634Z,14.55
2023-03-27T16:55:13.449Z,14.44
2023-03-27T16:57:42.003Z,14.28
2023-03-27T17:00:11.447Z,14.17
2023-03-27T17:02:43.872Z,14.06
2023-03-27T17:05:12.139Z,13.93
2023-03-27T17:07:45.996Z,13.83
2023-03-27T17:10:18.054Z,13.76
2023-03-27T17:12:56.886Z,13.73
2023-03-27T17:15:24.436Z,13.72
2023-03-27T17:17:52.872Z,13.70
2023-03-27T17:20:21.370Z,13.67
2023-03-27T17:22:49.465Z,13.63
2023-03-27T17:25:18.053Z,13.60
2023-03-27T17:27:45.813Z,13.54
2023-03-27T17:30:16.074Z,13.46
2023-03-27T17:32:47.802Z,13.38
2023-03-27T17:35:15.250Z,13.33
2023-03-27T17:37:43.628Z,13.28
2023-03-27T17:40:12.105Z,13.21
2023-03-27T17:42:40.121Z,13.13
2023-03-27T17:45:11.084Z,13.04
2023-03-27T17:47:38.628Z,13.00
2023-03-27T17:50:06.512Z,12.98
2023-03-27T17:52:34.212Z,12.97
2023-03-27T17:55:04.530Z,12.95
2023-03-27T17:57:32.494Z,12.93
2023-03-27T18:00:00.103Z,12.88
2023-03-27T18:02:30.512Z,12.84
2023-03-27T18:04:58.557Z,12.81
2023-03-27T18:07:26.245Z,12.78
2023-03-27T18:10:05.754Z,12.73
2023-03-27T18:12:33.926Z,12.71
2023-03-27T18:15:02.081Z,12.67
2023-03-27T18:17:30.619Z,12.62
2023-03-27T18:19:58.246Z,12.56
2023-03-27T18:22:25.695Z,12.52
2023-03-27T18:24:53.767Z,12.50
2023-03-27T18:27:21.430Z,12.46
2023-03-27T18:29:52.473Z,12.44
2023-03-27T18:32:20.434Z,12.45
2023-03-27T18:34:47.896Z,12.46
2023-03-27T18:37:15.821Z,12.49
2023-03-27T18:39:43.944Z,12.46
2023-03-27T18:42:11.439Z,12.40
2023-03-27T18:44:41.103Z,12.36
2023-03-27T18:47:09.170Z,12.34
2023-03-27T18:49:36.793Z,12.32
2023-03-27T18:52:05.027Z,12.29
2023-03-27T18:54:32.661Z,12.25
2023-03-27T18:57:03.768Z,12.18
2023-03-27T18:59:32.089Z,12.10
2023-03-27T19:02:01.620Z,12.06
2023-03-27T19:04:31.606Z,12.02
2023-03-27T19:06:59.269Z,11.98
2023-03-27T19:09:40.934Z,11.94
2023-03-27T19:12:10.379Z,11.92
2023-03-27T19:15:00.473Z,11.89
2023-03-27T19:17:53.685Z,11.91
2023-03-27T19:21:00.479Z,11.93
2023-03-27T19:23:48.638Z,11.96
2023-03-27T19:26:19.073Z,12.00
2023-03-27T19:28:47.251Z,12.01
2023-03-27T19:31:16.655Z,12.01
2023-03-27T19:33:45.413Z,12.00
2023-03-27T19:36:12.927Z,11.99
2023-03-27T19:38:41.147Z,11.98
2023-03-27T19:41:09.261Z,12.01
2023-03-27T19:43:38.930Z,12.03
2023-03-27T19:46:15.739Z,12.05
2023-03-27T19:48:45.404Z,12.02
2023-03-27T19:51:20.956Z,12.00
2023-03-27T19:53:51.620Z,11.99
2023-03-27T19:56:22.220Z,12.00
2023-03-27T19:58:49.983Z,12.00
2023-03-27T20:01:19.549Z,12.00
2023-03-27T20:03:47.839Z,11.97
2023-03-27T20:06:19.116Z,11.94
2023-03-27T20:08:47.084Z,11.93
2023-03-27T20:11:15.668Z,11.94
2023-03-27T20:13:55.352Z,11.95
2023-03-27T20:16:25.500Z,11.93
2023-03-27T20:19:04.024Z,11.88
2023-03-27T20:21:33.452Z,11.86
2023-03-27T20:24:01.213Z,11.84
2023-03-27T20:26:38.394Z,11.83
2023-03-27T20:29:11.687Z,11.85
2023-03-27T20:31:39.504Z,11.86
2023-03-27T20:34:07.454Z,11.86
2023-03-27T20:36:35.100Z,11.82
2023-03-27T20:39:13.908Z,11.79
2023-03-27T20:41:41.801Z,11.74
2023-03-27T20:44:16.156Z,11.73
2023-03-27T20:46:50.649Z,11.73
2023-03-27T20:51:59.264Z,11.67
2023-03-27T20:54:28.341Z,11.68
2023-03-27T20:56:56.289Z,11.67
2023-03-27T20:59:24.587Z,11.66
2023-03-27T21:01:54.135Z,11.66
2023-03-27T21:04:24.006Z,11.68
2023-03-27T21:06:54.351Z,11.70
2023-03-27T21:09:22.192Z,11.73
2023-03-27T21:11:49.886Z,11.71
2023-03-27T21:14:17.313Z,11.67
2023-03-27T21:16:48.339Z,11.63
2023-03-27T21:19:17.448Z,11.58
2023-03-27T21:21:45.871Z,11.51
2023-03-27T21:24:13.898Z,11.46
2023-03-27T21:26:41.579Z,11.39
2023-03-27T21:29:10.954Z,11.32
2023-03-27T21:31:39.572Z,11.29
2023-03-27T21:34:07.445Z,11.29
2023-03-27T21:36:35.219Z,11.28
2023-03-27T21:39:02.881Z,11.26
2023-03-27T21:41:30.497Z,11.21
2023-03-27T21:43:57.864Z,11.16
2023-03-27T21:46:25.675Z,11.13
2023-03-27T21:48:53.614Z,11.10
2023-03-27T21:51:20.943Z,11.07
2023-03-27T21:53:48.296Z,11.00
2023-03-27T21:56:16.262Z,10.96
2023-03-27T21:58:44.256Z,10.92
2023-03-27T22:01:14.698Z,10.88
2023-03-27T22:03:43.958Z,10.84
2023-03-27T22:06:13.337Z,10.81
2023-03-27T22:08:42.946Z,10.79
2023-03-27T22:11:11.073Z,10.75
2023-03-27T22:13:38.602Z,10.72
2023-03-27T22:16:11.621Z,10.69
2023-03-27T22:18:39.752Z,10.63
2023-03-27T22:21:17.161Z,10.59
2023-03-27T22:23:45.003Z,10.59
2023-03-27T22:26:12.654Z,10.56
2023-03-27T22:28:42.071Z,10.53
2023-03-27T22:31:09.797Z,10.53
2023-03-27T22:33:38.048Z,10.51
2023-03-27T22:36:06.065Z,10.50
2023-03-27T22:38:33.951Z,10.49
2023-03-27T22:41:03.347Z,10.47
2023-03-27T22:43:31.672Z,10.43
2023-03-27T22:46:09.334Z,10.40
2023-03-27T22:48:39.139Z,10.34
2023-03-27T22:51:06.797Z,10.30
2023-03-27T22:53:37.321Z,10.29
2023-03-27T22:56:05.391Z,10.28
2023-03-27T22:58:33.059Z,10.27
2023-03-27T23:01:03.001Z,10.28
2023-03-27T23:03:30.564Z,10.28
2023-03-27T23:05:59.060Z,10.28
2023-03-27T23:08:27.693Z,10.28
2023-03-27T23:10:55.969Z,10.27
2023-03-27T23:13:24.465Z,10.26
2023-03-27T23:15:52.329Z,10.28
2023-03-27T23:18:26.842Z,10.27
2023-03-27T23:20:58.703Z,10.26
2023-03-27T23:23:26.524Z,10.24
2023-03-27T23:25:54.333Z,10.24
2023-03-27T23:28:21.694Z,10.23
2023-03-27T23:30:55.950Z,10.23
2023-03-27T23:33:38.001Z,10.22
2023-03-27T23:36:07.335Z,10.24
2023-03-27T23:38:34.993Z,10.22
2023-03-27T23:41:03.168Z,10.22
2023-03-27T23:43:30.702Z,10.18
2023-03-27T23:46:04.666Z,10.13
2023-03-27T23:48:32.261Z,10.09
2023-03-27T23:50:59.923Z,10.09
2023-03-27T23:53:30.147Z,10.09
2023-03-27T23:55:58.358Z,10.05
2023-03-27T23:58:31.717Z,9.99
